sensor_id;sensor_type;location;lat;lon;timestamp;P1;durP1;ratioP1;P2;durP2;ratioP2
5381;SDS011;2714;49.852;6.564;2023-02-14T00:01:56;22.07;;;12.77;;
5381;SDS011;2714;49.852;6.564;2023-02-14T00:05:57;20.47;;;12.90;;
5381;SDS011;2714;49.852;6.564;2023-02-14T00:10:03;23.43;;;12.53;;
5381;SDS011;2714;49.852;6.564;2023-02-14T00:14:04;20.57;;;13.00;;
5381;SDS011;2714;49.852;6.564;2023-02-14T00:18:24;26.27;;;13.73;;
5381;SDS011;2714;49.852;6.564;2023-02-14T00:22:47;19.53;;;13.07;;
5381;SDS011;2714;49.852;6.564;2023-02-14T00:26:48;20.87;;;11.90;;
5381;SDS011;2714;49.852;6.564;2023-02-14T00:30:49;20.83;;;12.70;;
5381;SDS011;2714;49.852;6.564;2023-02-14T00:34:50;23.03;;;13.73;;
5381;SDS011;2714;49.852;6.564;2023-02-14T00:43:30;21.60;;;12.97;;
5381;SDS011;2714;49.852;6.564;2023-02-14T00:47:31;24.43;;;13.50;;
5381;SDS011;2714;49.852;6.564;2023-02-14T00:51:32;24.50;;;13.90;;
5381;SDS011;2714;49.852;6.564;2023-02-14T00:55:32;23.27;;;13.67;;
5381;SDS011;2714;49.852;6.564;2023-02-14T00:59:33;33.07;;;18.00;;
5381;SDS011;2714;49.852;6.564;2023-02-14T01:03:34;40.00;;;23.27;;
5381;SDS011;2714;49.852;6.564;2023-02-14T01:07:35;29.07;;;17.40;;
5381;SDS011;2714;49.852;6.564;2023-02-14T01:11:36;20.90;;;12.60;;
5381;SDS011;2714;49.852;6.564;2023-02-14T01:15:38;27.43;;;15.33;;
5381;SDS011;2714;49.852;6.564;2023-02-14T01:19:40;23.10;;;14.13;;
5381;SDS011;2714;49.852;6.564;2023-02-14T01:23:41;25.97;;;14.93;;
5381;SDS011;2714;49.852;6.564;2023-02-14T01:27:43;25.67;;;14.63;;
5381;SDS011;2714;49.852;6.564;2023-02-14T01:31:44;26.20;;;15.37;;
5381;SDS011;2714;49.852;6.564;2023-02-14T01:35:47;23.57;;;13.60;;
5381;SDS011;2714;49.852;6.564;2023-02-14T01:39:47;26.97;;;14.87;;
5381;SDS011;2714;49.852;6.564;2023-02-14T01:43:52;26.00;;;15.00;;
5381;SDS011;2714;49.852;6.564;2023-02-14T01:47:55;27.00;;;14.50;;
5381;SDS011;2714;49.852;6.564;2023-02-14T01:56:08;35.07;;;20.20;;
5381;SDS011;2714;49.852;6.564;2023-02-14T02:00:14;25.30;;;15.20;;
5381;SDS011;2714;49.852;6.564;2023-02-14T02:04:34;22.17;;;14.83;;
5381;SDS011;2714;49.852;6.564;2023-02-14T02:08:43;21.67;;;13.70;;
5381;SDS011;2714;49.852;6.564;2023-02-14T02:13:14;25.60;;;12.93;;
5381;SDS011;2714;49.852;6.564;2023-02-14T02:17:27;24.30;;;14.20;;
5381;SDS011;2714;49.852;6.564;2023-02-14T02:21:55;25.33;;;14.10;;
5381;SDS011;2714;49.852;6.564;2023-02-14T02:48:14;26.60;;;13.87;;
5381;SDS011;2714;49.852;6.564;2023-02-14T02:52:27;27.20;;;14.77;;
5381;SDS011;2714;49.852;6.564;2023-02-14T02:56:56;27.03;;;14.47;;
5381;SDS011;2714;49.852;6.564;2023-02-14T03:01:01;27.67;;;13.63;;
5381;SDS011;2714;49.852;6.564;2023-02-14T03:05:07;26.93;;;15.00;;
5381;SDS011;2714;49.852;6.564;2023-02-14T03:13:40;27.50;;;15.40;;
5381;SDS011;2714;49.852;6.564;2023-02-14T03:18:20;36.63;;;15.90;;
5381;SDS011;2714;49.852;6.564;2023-02-14T03:31:07;27.87;;;15.07;;
5381;SDS011;2714;49.852;6.564;2023-02-14T03:35:36;26.20;;;15.03;;
5381;SDS011;2714;49.852;6.564;2023-02-14T03:40:08;33.93;;;16.17;;
5381;SDS011;2714;49.852;6.564;2023-02-14T03:44:09;27.50;;;14.97;;
5381;SDS011;2714;49.852;6.564;2023-02-14T03:48:13;28.73;;;15.60;;
5381;SDS011;2714;49.852;6.564;2023-02-14T03:52:15;28.83;;;14.33;;
5381;SDS011;2714;49.852;6.564;2023-02-14T03:56:25;29.80;;;13.90;;
5381;SDS011;2714;49.852;6.564;2023-02-14T04:00:28;30.57;;;15.00;;
5381;SDS011;2714;49.852;6.564;2023-02-14T04:04:32;37.83;;;18.00;;
5381;SDS011;2714;49.852;6.564;2023-02-14T04:08:36;57.37;;;19.00;;
5381;SDS011;2714;49.852;6.564;2023-02-14T04:12:36;36.33;;;18.00;;
5381;SDS011;2714;49.852;6.564;2023-02-14T04:16:37;33.67;;;17.27;;
5381;SDS011;2714;49.852;6.564;2023-02-14T04:20:56;38.13;;;18.30;;
5381;SDS011;2714;49.852;6.564;2023-02-14T04:24:59;37.57;;;18.60;;
5381;SDS011;2714;49.852;6.564;2023-02-14T04:29:00;49.47;;;21.90;;
5381;SDS011;2714;49.852;6.564;2023-02-14T04:33:01;44.30;;;19.77;;
5381;SDS011;2714;49.852;6.564;2023-02-14T04:37:02;41.00;;;19.30;;
5381;SDS011;2714;49.852;6.564;2023-02-14T04:41:03;43.00;;;19.23;;
5381;SDS011;2714;49.852;6.564;2023-02-14T04:45:04;31.67;;;16.67;;
5381;SDS011;2714;49.852;6.564;2023-02-14T04:49:05;28.93;;;15.10;;
5381;SDS011;2714;49.852;6.564;2023-02-14T04:53:05;41.13;;;22.00;;
5381;SDS011;2714;49.852;6.564;2023-02-14T04:57:06;56.03;;;28.20;;
5381;SDS011;2714;49.852;6.564;2023-02-14T05:01:07;33.43;;;17.90;;
5381;SDS011;2714;49.852;6.564;2023-02-14T05:05:07;45.47;;;20.87;;
5381;SDS011;2714;49.852;6.564;2023-02-14T05:09:08;32.70;;;17.93;;
5381;SDS011;2714;49.852;6.564;2023-02-14T05:13:08;42.63;;;18.93;;
5381;SDS011;2714;49.852;6.564;2023-02-14T05:17:09;46.33;;;19.10;;
5381;SDS011;2714;49.852;6.564;2023-02-14T05:21:10;31.47;;;16.27;;
5381;SDS011;2714;49.852;6.564;2023-02-14T05:25:11;35.20;;;19.20;;
5381;SDS011;2714;49.852;6.564;2023-02-14T05:29:11;37.53;;;18.90;;
5381;SDS011;2714;49.852;6.564;2023-02-14T05:33:12;35.57;;;16.80;;
5381;SDS011;2714;49.852;6.564;2023-02-14T05:37:12;34.80;;;17.60;;
5381;SDS011;2714;49.852;6.564;2023-02-14T05:41:13;34.63;;;18.60;;
5381;SDS011;2714;49.852;6.564;2023-02-14T05:45:14;43.60;;;19.90;;
5381;SDS011;2714;49.852;6.564;2023-02-14T05:49:14;44.27;;;20.90;;
5381;SDS011;2714;49.852;6.564;2023-02-14T05:53:15;40.40;;;17.83;;
5381;SDS011;2714;49.852;6.564;2023-02-14T05:57:16;34.07;;;16.77;;
5381;SDS011;2714;49.852;6.564;2023-02-14T06:01:16;45.13;;;20.97;;
5381;SDS011;2714;49.852;6.564;2023-02-14T06:05:17;51.00;;;22.97;;
5381;SDS011;2714;49.852;6.564;2023-02-14T06:09:19;55.53;;;23.70;;
5381;SDS011;2714;49.852;6.564;2023-02-14T06:13:19;63.70;;;30.43;;
5381;SDS011;2714;49.852;6.564;2023-02-14T06:17:20;58.33;;;25.47;;
5381;SDS011;2714;49.852;6.564;2023-02-14T06:21:20;45.17;;;21.77;;
5381;SDS011;2714;49.852;6.564;2023-02-14T06:25:21;45.07;;;23.30;;
5381;SDS011;2714;49.852;6.564;2023-02-14T06:29:23;35.80;;;18.50;;
5381;SDS011;2714;49.852;6.564;2023-02-14T06:33:23;40.70;;;20.00;;
5381;SDS011;2714;49.852;6.564;2023-02-14T06:37:24;36.37;;;18.43;;
5381;SDS011;2714;49.852;6.564;2023-02-14T06:41:25;38.10;;;18.23;;
5381;SDS011;2714;49.852;6.564;2023-02-14T06:45:25;37.47;;;19.63;;
5381;SDS011;2714;49.852;6.564;2023-02-14T06:49:26;35.80;;;17.27;;
5381;SDS011;2714;49.852;6.564;2023-02-14T06:53:26;43.47;;;20.00;;
5381;SDS011;2714;49.852;6.564;2023-02-14T06:57:27;52.73;;;23.83;;
5381;SDS011;2714;49.852;6.564;2023-02-14T07:01:28;50.57;;;23.17;;
5381;SDS011;2714;49.852;6.564;2023-02-14T07:05:28;37.47;;;19.70;;
5381;SDS011;2714;49.852;6.564;2023-02-14T07:09:29;57.20;;;21.47;;
5381;SDS011;2714;49.852;6.564;2023-02-14T07:13:29;51.47;;;22.17;;
5381;SDS011;2714;49.852;6.564;2023-02-14T07:17:30;34.57;;;18.60;;
5381;SDS011;2714;49.852;6.564;2023-02-14T07:21:30;33.70;;;18.00;;
5381;SDS011;2714;49.852;6.564;2023-02-14T07:25:31;32.50;;;16.97;;
5381;SDS011;2714;49.852;6.564;2023-02-14T07:29:32;36.13;;;16.50;;
5381;SDS011;2714;49.852;6.564;2023-02-14T07:33:32;43.93;;;20.70;;
5381;SDS011;2714;49.852;6.564;2023-02-14T07:37:33;30.57;;;16.60;;
5381;SDS011;2714;49.852;6.564;2023-02-14T07:41:34;36.67;;;18.30;;
5381;SDS011;2714;49.852;6.564;2023-02-14T07:45:35;38.43;;;19.60;;
5381;SDS011;2714;49.852;6.564;2023-02-14T07:49:36;34.57;;;18.57;;
5381;SDS011;2714;49.852;6.564;2023-02-14T07:53:36;34.10;;;20.60;;
5381;SDS011;2714;49.852;6.564;2023-02-14T07:57:37;33.63;;;20.80;;
5381;SDS011;2714;49.852;6.564;2023-02-14T08:01:37;35.70;;;19.53;;
5381;SDS011;2714;49.852;6.564;2023-02-14T08:05:38;30.60;;;19.50;;
5381;SDS011;2714;49.852;6.564;2023-02-14T08:09:39;45.13;;;22.53;;
5381;SDS011;2714;49.852;6.564;2023-02-14T08:13:39;37.10;;;20.70;;
5381;SDS011;2714;49.852;6.564;2023-02-14T08:17:40;39.50;;;23.10;;
5381;SDS011;2714;49.852;6.564;2023-02-14T08:21:40;35.73;;;22.40;;
5381;SDS011;2714;49.852;6.564;2023-02-14T08:25:41;36.87;;;23.30;;
5381;SDS011;2714;49.852;6.564;2023-02-14T08:29:42;35.83;;;21.70;;
5381;SDS011;2714;49.852;6.564;2023-02-14T08:33:42;41.20;;;20.03;;
5381;SDS011;2714;49.852;6.564;2023-02-14T08:37:43;34.20;;;20.07;;
5381;SDS011;2714;49.852;6.564;2023-02-14T08:41:44;52.10;;;22.53;;
5381;SDS011;2714;49.852;6.564;2023-02-14T08:45:44;54.07;;;24.30;;
5381;SDS011;2714;49.852;6.564;2023-02-14T08:49:45;53.53;;;25.73;;
5381;SDS011;2714;49.852;6.564;2023-02-14T08:53:48;57.90;;;24.67;;
5381;SDS011;2714;49.852;6.564;2023-02-14T08:57:49;44.07;;;23.13;;
5381;SDS011;2714;49.852;6.564;2023-02-14T09:01:50;38.80;;;24.30;;
5381;SDS011;2714;49.852;6.564;2023-02-14T09:05:50;36.47;;;21.57;;
5381;SDS011;2714;49.852;6.564;2023-02-14T09:09:51;37.40;;;23.70;;
5381;SDS011;2714;49.852;6.564;2023-02-14T09:13:52;32.50;;;25.67;;
5381;SDS011;2714;49.852;6.564;2023-02-14T09:17:52;28.20;;;24.03;;
5381;SDS011;2714;49.852;6.564;2023-02-14T09:21:53;37.67;;;28.33;;
5381;SDS011;2714;49.852;6.564;2023-02-14T09:26:00;33.63;;;27.60;;
5381;SDS011;2714;49.852;6.564;2023-02-14T09:30:03;25.50;;;22.17;;
5381;SDS011;2714;49.852;6.564;2023-02-14T09:34:04;28.00;;;24.03;;
5381;SDS011;2714;49.852;6.564;2023-02-14T09:38:05;28.10;;;25.20;;
5381;SDS011;2714;49.852;6.564;2023-02-14T09:42:25;29.07;;;22.70;;
5381;SDS011;2714;49.852;6.564;2023-02-14T09:46:51;26.87;;;22.13;;
5381;SDS011;2714;49.852;6.564;2023-02-14T09:50:55;24.80;;;21.87;;
5381;SDS011;2714;49.852;6.564;2023-02-14T09:54:59;23.70;;;21.10;;
5381;SDS011;2714;49.852;6.564;2023-02-14T10:07:48;23.73;;;21.27;;
5381;SDS011;2714;49.852;6.564;2023-02-14T10:11:56;19.77;;;17.77;;
5381;SDS011;2714;49.852;6.564;2023-02-14T10:16:21;22.00;;;19.90;;
5381;SDS011;2714;49.852;6.564;2023-02-14T10:24:54;22.83;;;20.43;;
5381;SDS011;2714;49.852;6.564;2023-02-14T10:28:57;22.30;;;20.13;;
5381;SDS011;2714;49.852;6.564;2023-02-14T10:33:17;27.37;;;20.20;;
5381;SDS011;2714;49.852;6.564;2023-02-14T10:46:38;21.17;;;19.07;;
5381;SDS011;2714;49.852;6.564;2023-02-14T10:54:52;20.93;;;18.73;;
5381;SDS011;2714;49.852;6.564;2023-02-14T10:58:58;21.80;;;19.63;;
5381;SDS011;2714;49.852;6.564;2023-02-14T11:03:18;21.90;;;19.73;;
5381;SDS011;2714;49.852;6.564;2023-02-14T11:07:19;22.73;;;20.33;;
5381;SDS011;2714;49.852;6.564;2023-02-14T11:11:37;21.27;;;19.17;;
5381;SDS011;2714;49.852;6.564;2023-02-14T11:15:43;23.90;;;18.87;;
5381;SDS011;2714;49.852;6.564;2023-02-14T11:19:59;21.57;;;19.47;;
5381;SDS011;2714;49.852;6.564;2023-02-14T11:24:02;21.43;;;19.23;;
5381;SDS011;2714;49.852;6.564;2023-02-14T11:28:17;21.27;;;19.10;;
5381;SDS011;2714;49.852;6.564;2023-02-14T11:32:22;21.17;;;19.07;;
5381;SDS011;2714;49.852;6.564;2023-02-14T11:36:31;22.77;;;20.47;;
5381;SDS011;2714;49.852;6.564;2023-02-14T11:40:39;21.17;;;19.00;;
5381;SDS011;2714;49.852;6.564;2023-02-14T11:44:52;24.63;;;22.03;;
5381;SDS011;2714;49.852;6.564;2023-02-14T11:53:07;21.13;;;19.03;;
5381;SDS011;2714;49.852;6.564;2023-02-14T12:01:14;24.70;;;20.20;;
5381;SDS011;2714;49.852;6.564;2023-02-14T12:05:32;22.73;;;18.73;;
5381;SDS011;2714;49.852;6.564;2023-02-14T12:09:42;24.47;;;19.87;;
5381;SDS011;2714;49.852;6.564;2023-02-14T12:13:53;23.90;;;18.97;;
5381;SDS011;2714;49.852;6.564;2023-02-14T12:17:58;28.97;;;19.23;;
5381;SDS011;2714;49.852;6.564;2023-02-14T12:22:25;29.10;;;19.87;;
5381;SDS011;2714;49.852;6.564;2023-02-14T12:26:46;28.80;;;19.33;;
5381;SDS011;2714;49.852;6.564;2023-02-14T12:31:12;26.60;;;17.70;;
5381;SDS011;2714;49.852;6.564;2023-02-14T12:35:14;24.60;;;17.90;;
5381;SDS011;2714;49.852;6.564;2023-02-14T12:56:33;24.70;;;17.90;;
5381;SDS011;2714;49.852;6.564;2023-02-14T13:05:04;23.57;;;17.70;;
5381;SDS011;2714;49.852;6.564;2023-02-14T13:22:00;25.20;;;17.60;;
5381;SDS011;2714;49.852;6.564;2023-02-14T13:26:06;26.00;;;17.70;;
5381;SDS011;2714;49.852;6.564;2023-02-14T13:30:15;24.00;;;16.37;;
5381;SDS011;2714;49.852;6.564;2023-02-14T13:34:31;25.57;;;17.03;;
5381;SDS011;2714;49.852;6.564;2023-02-14T13:38:39;24.70;;;17.77;;
5381;SDS011;2714;49.852;6.564;2023-02-14T13:46:48;24.53;;;15.30;;
5381;SDS011;2714;49.852;6.564;2023-02-14T13:54:53;27.90;;;17.80;;
5381;SDS011;2714;49.852;6.564;2023-02-14T13:59:02;23.53;;;17.20;;
5381;SDS011;2714;49.852;6.564;2023-02-14T14:03:05;25.20;;;17.10;;
5381;SDS011;2714;49.852;6.564;2023-02-14T14:15:25;27.77;;;17.63;;
5381;SDS011;2714;49.852;6.564;2023-02-14T14:23:28;25.00;;;17.67;;
5381;SDS011;2714;49.852;6.564;2023-02-14T14:27:32;28.63;;;17.97;;
5381;SDS011;2714;49.852;6.564;2023-02-14T14:31:33;29.03;;;19.60;;
5381;SDS011;2714;49.852;6.564;2023-02-14T14:35:35;29.83;;;18.93;;
5381;SDS011;2714;49.852;6.564;2023-02-14T14:39:36;31.63;;;19.00;;
5381;SDS011;2714;49.852;6.564;2023-02-14T14:43:38;31.37;;;18.60;;
5381;SDS011;2714;49.852;6.564;2023-02-14T14:47:41;31.50;;;18.30;;
5381;SDS011;2714;49.852;6.564;2023-02-14T14:51:43;32.40;;;20.33;;
5381;SDS011;2714;49.852;6.564;2023-02-14T14:55:44;29.93;;;19.70;;
5381;SDS011;2714;49.852;6.564;2023-02-14T15:00:02;30.13;;;19.20;;
5381;SDS011;2714;49.852;6.564;2023-02-14T15:04:10;32.13;;;19.57;;
5381;SDS011;2714;49.852;6.564;2023-02-14T15:08:31;32.03;;;20.20;;
5381;SDS011;2714;49.852;6.564;2023-02-14T15:12:35;31.23;;;20.00;;
5381;SDS011;2714;49.852;6.564;2023-02-14T15:16:59;32.13;;;19.03;;
5381;SDS011;2714;49.852;6.564;2023-02-14T15:21:02;30.17;;;19.50;;
5381;SDS011;2714;49.852;6.564;2023-02-14T15:25:47;32.67;;;19.43;;
5381;SDS011;2714;49.852;6.564;2023-02-14T15:29:31;35.70;;;20.83;;
5381;SDS011;2714;49.852;6.564;2023-02-14T15:33:32;26.93;;;19.07;;
5381;SDS011;2714;49.852;6.564;2023-02-14T15:37:33;30.20;;;19.53;;
5381;SDS011;2714;49.852;6.564;2023-02-14T15:41:34;31.67;;;19.20;;
5381;SDS011;2714;49.852;6.564;2023-02-14T15:45:36;35.10;;;20.57;;
5381;SDS011;2714;49.852;6.564;2023-02-14T15:49:36;33.97;;;19.47;;
5381;SDS011;2714;49.852;6.564;2023-02-14T15:53:44;30.93;;;20.03;;
5381;SDS011;2714;49.852;6.564;2023-02-14T15:57:52;28.00;;;19.67;;
5381;SDS011;2714;49.852;6.564;2023-02-14T16:02:00;31.97;;;20.17;;
5381;SDS011;2714;49.852;6.564;2023-02-14T16:06:04;34.30;;;19.90;;
5381;SDS011;2714;49.852;6.564;2023-02-14T16:10:12;37.30;;;20.17;;
5381;SDS011;2714;49.852;6.564;2023-02-14T16:22:43;34.50;;;20.70;;
5381;SDS011;2714;49.852;6.564;2023-02-14T16:26:47;38.60;;;19.70;;
5381;SDS011;2714;49.852;6.564;2023-02-14T16:30:51;36.07;;;20.43;;
5381;SDS011;2714;49.852;6.564;2023-02-14T16:34:54;34.80;;;19.77;;
5381;SDS011;2714;49.852;6.564;2023-02-14T16:38:55;33.50;;;19.03;;
5381;SDS011;2714;49.852;6.564;2023-02-14T16:42:56;33.97;;;20.50;;
5381;SDS011;2714;49.852;6.564;2023-02-14T16:46:58;35.17;;;20.40;;
5381;SDS011;2714;49.852;6.564;2023-02-14T16:51:01;33.67;;;19.00;;
5381;SDS011;2714;49.852;6.564;2023-02-14T16:55:01;32.57;;;18.50;;
5381;SDS011;2714;49.852;6.564;2023-02-14T16:59:02;30.50;;;19.43;;
5381;SDS011;2714;49.852;6.564;2023-02-14T17:03:03;32.87;;;20.00;;
5381;SDS011;2714;49.852;6.564;2023-02-14T17:07:06;28.63;;;19.60;;
5381;SDS011;2714;49.852;6.564;2023-02-14T17:11:07;35.03;;;21.97;;
5381;SDS011;2714;49.852;6.564;2023-02-14T17:15:11;33.63;;;21.07;;
5381;SDS011;2714;49.852;6.564;2023-02-14T17:19:15;30.10;;;19.97;;
5381;SDS011;2714;49.852;6.564;2023-02-14T17:23:16;27.90;;;17.70;;
5381;SDS011;2714;49.852;6.564;2023-02-14T17:27:19;28.80;;;17.37;;
5381;SDS011;2714;49.852;6.564;2023-02-14T17:31:19;28.13;;;16.90;;
5381;SDS011;2714;49.852;6.564;2023-02-14T17:35:20;41.50;;;26.30;;
5381;SDS011;2714;49.852;6.564;2023-02-14T17:39:21;46.03;;;30.37;;
5381;SDS011;2714;49.852;6.564;2023-02-14T17:43:21;44.50;;;28.80;;
5381;SDS011;2714;49.852;6.564;2023-02-14T17:47:23;43.73;;;27.37;;
5381;SDS011;2714;49.852;6.564;2023-02-14T17:51:23;38.30;;;24.70;;
5381;SDS011;2714;49.852;6.564;2023-02-14T17:55:24;38.40;;;23.67;;
5381;SDS011;2714;49.852;6.564;2023-02-14T17:59:24;41.13;;;25.93;;
5381;SDS011;2714;49.852;6.564;2023-02-14T18:03:25;42.60;;;26.90;;
5381;SDS011;2714;49.852;6.564;2023-02-14T18:07:26;46.70;;;28.00;;
5381;SDS011;2714;49.852;6.564;2023-02-14T18:11:26;45.17;;;27.43;;
5381;SDS011;2714;49.852;6.564;2023-02-14T18:15:27;46.57;;;28.13;;
5381;SDS011;2714;49.852;6.564;2023-02-14T18:19:28;40.47;;;26.80;;
5381;SDS011;2714;49.852;6.564;2023-02-14T18:23:28;44.63;;;28.30;;
5381;SDS011;2714;49.852;6.564;2023-02-14T18:27:30;38.73;;;24.63;;
5381;SDS011;2714;49.852;6.564;2023-02-14T18:31:35;53.47;;;27.47;;
5381;SDS011;2714;49.852;6.564;2023-02-14T18:35:36;40.27;;;23.13;;
5381;SDS011;2714;49.852;6.564;2023-02-14T18:39:37;39.47;;;23.17;;
5381;SDS011;2714;49.852;6.564;2023-02-14T18:43:39;42.97;;;24.40;;
5381;SDS011;2714;49.852;6.564;2023-02-14T18:47:40;46.53;;;27.37;;
5381;SDS011;2714;49.852;6.564;2023-02-14T18:51:40;48.70;;;30.87;;
5381;SDS011;2714;49.852;6.564;2023-02-14T18:55:42;43.47;;;26.77;;
5381;SDS011;2714;49.852;6.564;2023-02-14T18:59:43;42.37;;;25.33;;
5381;SDS011;2714;49.852;6.564;2023-02-14T19:03:44;41.60;;;25.40;;
5381;SDS011;2714;49.852;6.564;2023-02-14T19:07:45;49.90;;;24.67;;
5381;SDS011;2714;49.852;6.564;2023-02-14T19:11:45;37.83;;;23.00;;
5381;SDS011;2714;49.852;6.564;2023-02-14T19:15:46;39.10;;;22.80;;
5381;SDS011;2714;49.852;6.564;2023-02-14T19:19:47;45.43;;;24.17;;
5381;SDS011;2714;49.852;6.564;2023-02-14T19:23:51;40.00;;;23.10;;
5381;SDS011;2714;49.852;6.564;2023-02-14T19:27:53;40.53;;;23.70;;
5381;SDS011;2714;49.852;6.564;2023-02-14T19:31:55;45.67;;;24.30;;
5381;SDS011;2714;49.852;6.564;2023-02-14T19:36:00;41.10;;;24.67;;
5381;SDS011;2714;49.852;6.564;2023-02-14T19:40:02;41.73;;;24.77;;
5381;SDS011;2714;49.852;6.564;2023-02-14T19:44:03;49.30;;;27.50;;
5381;SDS011;2714;49.852;6.564;2023-02-14T19:48:05;47.47;;;27.43;;
5381;SDS011;2714;49.852;6.564;2023-02-14T19:52:11;52.47;;;31.60;;
5381;SDS011;2714;49.852;6.564;2023-02-14T19:56:17;39.40;;;24.53;;
5381;SDS011;2714;49.852;6.564;2023-02-14T20:00:21;46.67;;;27.03;;
5381;SDS011;2714;49.852;6.564;2023-02-14T20:04:24;39.73;;;25.73;;
5381;SDS011;2714;49.852;6.564;2023-02-14T20:08:26;50.13;;;24.97;;
5381;SDS011;2714;49.852;6.564;2023-02-14T20:12:27;40.50;;;23.10;;
5381;SDS011;2714;49.852;6.564;2023-02-14T20:16:28;46.03;;;27.67;;
5381;SDS011;2714;49.852;6.564;2023-02-14T20:20:30;46.23;;;27.40;;
5381;SDS011;2714;49.852;6.564;2023-02-14T20:24:51;45.27;;;24.57;;
5381;SDS011;2714;49.852;6.564;2023-02-14T20:39:03;46.30;;;29.60;;
5381;SDS011;2714;49.852;6.564;2023-02-14T20:43:04;56.27;;;33.00;;
5381;SDS011;2714;49.852;6.564;2023-02-14T20:47:05;48.20;;;28.20;;
5381;SDS011;2714;49.852;6.564;2023-02-14T20:51:10;45.27;;;26.13;;
5381;SDS011;2714;49.852;6.564;2023-02-14T20:55:12;41.80;;;23.90;;
5381;SDS011;2714;49.852;6.564;2023-02-14T20:59:12;44.37;;;23.97;;
5381;SDS011;2714;49.852;6.564;2023-02-14T21:03:13;45.93;;;25.60;;
5381;SDS011;2714;49.852;6.564;2023-02-14T21:07:14;43.87;;;25.53;;
5381;SDS011;2714;49.852;6.564;2023-02-14T21:11:15;44.87;;;24.70;;
5381;SDS011;2714;49.852;6.564;2023-02-14T21:15:17;44.30;;;26.50;;
5381;SDS011;2714;49.852;6.564;2023-02-14T21:19:18;47.70;;;28.40;;
5381;SDS011;2714;49.852;6.564;2023-02-14T21:23:18;58.40;;;29.17;;
5381;SDS011;2714;49.852;6.564;2023-02-14T21:27:19;49.13;;;27.20;;
5381;SDS011;2714;49.852;6.564;2023-02-14T21:31:20;47.30;;;26.30;;
5381;SDS011;2714;49.852;6.564;2023-02-14T21:35:20;43.70;;;26.17;;
5381;SDS011;2714;49.852;6.564;2023-02-14T21:39:21;56.10;;;29.70;;
5381;SDS011;2714;49.852;6.564;2023-02-14T21:43:26;50.63;;;26.23;;
5381;SDS011;2714;49.852;6.564;2023-02-14T21:47:27;43.70;;;24.47;;
5381;SDS011;2714;49.852;6.564;2023-02-14T21:51:27;38.10;;;20.77;;
5381;SDS011;2714;49.852;6.564;2023-02-14T21:55:28;40.50;;;22.90;;
5381;SDS011;2714;49.852;6.564;2023-02-14T21:59:29;36.30;;;21.03;;
5381;SDS011;2714;49.852;6.564;2023-02-14T22:03:29;38.43;;;22.20;;
5381;SDS011;2714;49.852;6.564;2023-02-14T22:07:30;40.60;;;23.40;;
5381;SDS011;2714;49.852;6.564;2023-02-14T22:11:31;37.37;;;23.37;;
5381;SDS011;2714;49.852;6.564;2023-02-14T22:15:31;38.00;;;22.37;;
5381;SDS011;2714;49.852;6.564;2023-02-14T22:19:32;41.43;;;23.70;;
5381;SDS011;2714;49.852;6.564;2023-02-14T22:23:33;39.30;;;23.80;;
5381;SDS011;2714;49.852;6.564;2023-02-14T22:27:36;52.67;;;28.30;;
5381;SDS011;2714;49.852;6.564;2023-02-14T22:31:40;49.97;;;29.17;;
5381;SDS011;2714;49.852;6.564;2023-02-14T22:35:42;47.20;;;25.17;;
5381;SDS011;2714;49.852;6.564;2023-02-14T22:39:42;42.27;;;24.70;;
5381;SDS011;2714;49.852;6.564;2023-02-14T22:43:43;41.93;;;23.60;;
5381;SDS011;2714;49.852;6.564;2023-02-14T22:47:44;47.00;;;24.30;;
5381;SDS011;2714;49.852;6.564;2023-02-14T22:51:45;46.77;;;25.73;;
5381;SDS011;2714;49.852;6.564;2023-02-14T22:55:45;42.00;;;23.80;;
5381;SDS011;2714;49.852;6.564;2023-02-14T22:59:46;41.20;;;21.90;;
5381;SDS011;2714;49.852;6.564;2023-02-14T23:03:53;43.43;;;23.03;;
5381;SDS011;2714;49.852;6.564;2023-02-14T23:07:55;43.67;;;24.70;;
5381;SDS011;2714;49.852;6.564;2023-02-14T23:11:56;46.50;;;24.00;;
5381;SDS011;2714;49.852;6.564;2023-02-14T23:15:56;41.27;;;23.83;;
5381;SDS011;2714;49.852;6.564;2023-02-14T23:20:16;42.27;;;23.60;;
5381;SDS011;2714;49.852;6.564;2023-02-14T23:24:35;40.57;;;22.93;;
5381;SDS011;2714;49.852;6.564;2023-02-14T23:28:35;40.70;;;22.53;;
5381;SDS011;2714;49.852;6.564;2023-02-14T23:32:36;38.43;;;22.23;;
5381;SDS011;2714;49.852;6.564;2023-02-14T23:36:37;40.67;;;22.77;;
5381;SDS011;2714;49.852;6.564;2023-02-14T23:40:38;35.10;;;21.53;;
5381;SDS011;2714;49.852;6.564;2023-02-14T23:44:57;46.03;;;24.20;;
5381;SDS011;2714;49.852;6.564;2023-02-14T23:49:17;40.90;;;22.13;;
5381;SDS011;2714;49.852;6.564;2023-02-14T23:53:18;43.97;;;25.57;;
5381;SDS011;2714;49.852;6.564;2023-02-14T23:57:19;40.97;;;23.60;;
